createdAt,value
2022-07-30T00:00:34.178Z,6.00
2022-07-30T00:03:01.656Z,6.17
2022-07-30T00:05:29.203Z,5.60
2022-07-30T00:07:56.798Z,5.60
2022-07-30T00:10:24.283Z,7.67
2022-07-30T00:12:52.090Z,15.47
2022-07-30T00:15:19.618Z,10.50
2022-07-30T00:17:49.092Z,5.57
2022-07-30T00:20:17.235Z,8.47
2022-07-30T00:22:46.149Z,7.63
2022-07-30T00:25:13.736Z,7.67
2022-07-30T00:27:41.196Z,5.87
2022-07-30T00:30:08.980Z,10.40
2022-07-30T00:32:36.448Z,8.00
2022-07-30T00:35:04.136Z,7.10
2022-07-30T00:37:31.675Z,7.97
2022-07-30T00:39:59.169Z,15.40
2022-07-30T00:42:37.528Z,10.73
2022-07-30T00:45:06.413Z,8.77
2022-07-30T00:47:33.940Z,6.93
2022-07-30T00:50:01.406Z,7.77
2022-07-30T00:52:28.919Z,8.33
2022-07-30T00:54:56.367Z,7.50
2022-07-30T00:57:23.979Z,10.10
2022-07-30T00:59:53.197Z,13.83
2022-07-30T01:02:21.117Z,10.93
2022-07-30T01:04:48.667Z,9.63
2022-07-30T01:07:16.183Z,7.13
2022-07-30T01:09:43.751Z,8.17
2022-07-30T01:12:17.983Z,7.93
2022-07-30T01:14:45.478Z,6.60
2022-07-30T01:17:12.993Z,10.57
2022-07-30T01:19:41.144Z,12.83
2022-07-30T01:22:31.907Z,8.93
2022-07-30T01:24:59.372Z,10.87
2022-07-30T01:27:28.331Z,10.30
2022-07-30T01:29:56.833Z,9.90
2022-07-30T01:32:24.935Z,8.50
2022-07-30T01:34:53.697Z,13.10
2022-07-30T01:37:21.807Z,7.63
2022-07-30T01:39:50.350Z,13.50
2022-07-30T01:42:18.489Z,7.40
2022-07-30T01:44:47.399Z,9.03
2022-07-30T01:47:16.204Z,7.60
2022-07-30T01:49:46.200Z,10.53
2022-07-30T01:52:15.139Z,8.63
2022-07-30T01:54:44.560Z,9.37
2022-07-30T01:57:12.336Z,10.90
2022-07-30T01:59:40.700Z,9.60
2022-07-30T02:02:08.267Z,12.50
2022-07-30T02:04:35.796Z,16.63
2022-07-30T02:07:03.628Z,10.77
2022-07-30T02:09:46.975Z,9.17
2022-07-30T02:12:17.235Z,9.83
2022-07-30T02:14:47.645Z,11.57
2022-07-30T02:17:19.712Z,13.23
2022-07-30T02:19:50.159Z,10.93
2022-07-30T02:22:18.147Z,9.43
2022-07-30T02:24:46.652Z,10.70
2022-07-30T02:27:18.804Z,8.63
2022-07-30T02:29:48.168Z,11.10
2022-07-30T02:32:18.392Z,11.63
2022-07-30T02:34:47.152Z,10.40
2022-07-30T02:37:15.702Z,8.87
2022-07-30T02:39:44.048Z,9.90
2022-07-30T02:42:12.629Z,14.57
2022-07-30T02:44:43.096Z,10.50
2022-07-30T02:47:13.339Z,14.87
2022-07-30T02:49:41.891Z,10.93
2022-07-30T02:52:10.632Z,9.03
2022-07-30T02:54:40.060Z,10.93
2022-07-30T02:57:07.861Z,9.73
2022-07-30T02:59:36.948Z,10.47
2022-07-30T03:02:05.166Z,10.63
2022-07-30T03:04:33.376Z,12.53
2022-07-30T03:07:04.935Z,12.70
2022-07-30T03:09:51.011Z,17.77
2022-07-30T03:12:20.491Z,11.53
2022-07-30T03:14:48.144Z,13.10
2022-07-30T03:17:16.593Z,13.83
2022-07-30T03:19:45.592Z,11.87
2022-07-30T03:22:13.410Z,16.60
2022-07-30T03:24:43.616Z,11.03
2022-07-30T03:27:11.397Z,17.03
2022-07-30T03:29:39.343Z,13.80
2022-07-30T03:32:07.223Z,13.63
2022-07-30T03:34:35.040Z,14.13
2022-07-30T03:37:04.606Z,17.60
2022-07-30T03:39:36.102Z,15.27
2022-07-30T03:42:04.564Z,14.93
2022-07-30T03:44:33.980Z,13.10
2022-07-30T03:47:02.584Z,19.57
2022-07-30T03:49:30.421Z,25.87
2022-07-30T03:51:58.316Z,28.67
2022-07-30T03:54:26.132Z,21.70
2022-07-30T03:56:53.756Z,19.67
2022-07-30T03:59:21.285Z,21.77
2022-07-30T04:01:48.843Z,22.43
2022-07-30T04:04:16.377Z,16.97
2022-07-30T04:06:43.895Z,20.03
2022-07-30T04:09:15.262Z,28.23
2022-07-30T04:11:42.739Z,20.93
2022-07-30T04:14:10.384Z,22.93
2022-07-30T04:16:42.485Z,22.37
2022-07-30T04:19:13.085Z,18.13
2022-07-30T04:21:41.357Z,17.87
2022-07-30T04:24:09.588Z,17.77
2022-07-30T04:26:38.333Z,21.13
2022-07-30T04:29:08.053Z,25.07
2022-07-30T04:31:40.545Z,22.53
2022-07-30T04:34:08.918Z,29.57
2022-07-30T04:36:36.400Z,27.70
2022-07-30T04:39:04.235Z,53.43
2022-07-30T04:41:48.447Z,29.07
2022-07-30T04:44:18.317Z,27.70
2022-07-30T04:46:46.403Z,31.67
2022-07-30T04:49:14.886Z,27.73
2022-07-30T04:51:43.276Z,30.57
2022-07-30T04:54:14.990Z,31.00
2022-07-30T04:56:52.593Z,30.03
2022-07-30T04:59:24.262Z,26.07
2022-07-30T05:01:52.110Z,25.03
2022-07-30T05:04:19.975Z,28.57
2022-07-30T05:06:47.779Z,28.27
2022-07-30T05:09:16.350Z,31.17
2022-07-30T05:11:50.197Z,31.27
2022-07-30T05:14:17.690Z,27.70
2022-07-30T05:16:45.225Z,29.63
2022-07-30T05:19:12.837Z,25.70
2022-07-30T05:21:40.326Z,27.50
2022-07-30T05:24:08.097Z,25.63
2022-07-30T05:26:35.705Z,25.43
2022-07-30T05:29:07.066Z,26.50
2022-07-30T05:31:34.987Z,23.27
2022-07-30T05:34:03.573Z,26.87
2022-07-30T05:36:31.582Z,19.87
2022-07-30T05:38:59.117Z,25.07
2022-07-30T05:41:32.564Z,25.47
2022-07-30T05:44:01.118Z,25.43
2022-07-30T05:46:28.844Z,26.37
2022-07-30T05:48:56.481Z,20.83
2022-07-30T05:51:23.965Z,25.73
2022-07-30T05:53:51.454Z,31.50
2022-07-30T05:56:18.990Z,26.33
2022-07-30T05:58:46.830Z,19.33
2022-07-30T06:01:14.383Z,29.70
2022-07-30T06:03:41.955Z,24.70
2022-07-30T06:06:09.456Z,22.67
2022-07-30T06:08:36.980Z,20.13
2022-07-30T06:11:04.510Z,22.50
2022-07-30T06:13:31.986Z,23.13
2022-07-30T06:15:59.563Z,22.93
2022-07-30T06:18:27.142Z,20.17
2022-07-30T06:20:54.764Z,17.23
2022-07-30T06:23:22.617Z,18.73
2022-07-30T06:25:50.534Z,16.43
2022-07-30T06:28:36.947Z,18.23
2022-07-30T06:31:05.476Z,15.37
2022-07-30T06:33:32.991Z,17.17
2022-07-30T06:36:00.620Z,15.93
2022-07-30T06:38:29.009Z,18.27
2022-07-30T06:41:00.626Z,17.47
2022-07-30T06:43:29.633Z,14.70
2022-07-30T06:45:57.342Z,12.77
2022-07-30T06:48:24.887Z,14.03
2022-07-30T06:50:52.383Z,18.00
2022-07-30T06:53:19.936Z,14.17
2022-07-30T06:55:47.033Z,14.50
2022-07-30T06:58:14.581Z,12.90
2022-07-30T07:00:42.084Z,13.27
2022-07-30T07:03:11.924Z,12.37
2022-07-30T07:05:39.627Z,13.00
2022-07-30T07:08:07.193Z,14.07
2022-07-30T07:10:34.748Z,13.47
2022-07-30T07:13:02.250Z,11.93
2022-07-30T07:15:37.385Z,17.77
2022-07-30T07:18:05.394Z,14.30
2022-07-30T07:20:33.478Z,11.93
2022-07-30T07:23:05.277Z,15.00
2022-07-30T07:25:36.636Z,13.93
2022-07-30T07:28:11.843Z,9.53
2022-07-30T07:30:41.659Z,16.60
2022-07-30T07:33:09.317Z,13.80
2022-07-30T07:35:48.606Z,12.00
2022-07-30T07:38:18.608Z,16.33
2022-07-30T07:40:46.636Z,12.90
2022-07-30T07:43:14.373Z,12.43
2022-07-30T07:45:42.890Z,13.63
2022-07-30T07:48:10.613Z,12.33
2022-07-30T07:50:38.525Z,17.40
2022-07-30T07:53:06.525Z,12.67
2022-07-30T07:55:33.998Z,11.97
2022-07-30T07:58:03.188Z,18.07
2022-07-30T08:00:31.830Z,11.03
2022-07-30T08:02:59.316Z,13.63
2022-07-30T08:05:58.242Z,12.10
2022-07-30T08:08:14.313Z,11.40
2022-07-30T08:10:41.825Z,10.40
2022-07-30T08:13:49.016Z,10.90
2022-07-30T08:15:56.912Z,10.77
2022-07-30T08:18:27.404Z,9.93
2022-07-30T08:20:55.029Z,12.07
2022-07-30T08:23:22.544Z,10.10
2022-07-30T08:25:50.086Z,8.07
2022-07-30T08:28:35.102Z,10.23
2022-07-30T08:31:03.192Z,10.60
2022-07-30T08:33:30.702Z,7.90
2022-07-30T08:36:02.799Z,10.47
2022-07-30T08:38:31.576Z,7.60
2022-07-30T08:40:59.081Z,7.90
2022-07-30T08:43:26.674Z,9.07
2022-07-30T08:45:54.365Z,12.70
2022-07-30T08:48:22.177Z,8.50
2022-07-30T08:50:50.379Z,9.73
2022-07-30T08:53:18.323Z,9.83
2022-07-30T08:55:45.811Z,8.47
2022-07-30T08:58:24.579Z,8.67
2022-07-30T09:00:52.252Z,16.67
2022-07-30T09:03:19.760Z,8.47
2022-07-30T09:05:47.327Z,8.03
2022-07-30T09:08:14.960Z,7.23
2022-07-30T09:10:50.656Z,6.33
2022-07-30T09:13:30.891Z,6.57
2022-07-30T09:15:58.754Z,7.03
2022-07-30T09:18:29.092Z,5.90
2022-07-30T09:20:56.695Z,6.33
2022-07-30T09:23:24.187Z,7.30
2022-07-30T09:25:51.761Z,5.60
2022-07-30T09:28:28.076Z,7.43
2022-07-30T09:30:56.401Z,6.43
2022-07-30T09:33:34.457Z,6.83
2022-07-30T09:36:02.064Z,5.97
2022-07-30T09:38:29.615Z,4.77
2022-07-30T09:40:58.906Z,5.10
2022-07-30T09:43:29.692Z,5.80
2022-07-30T09:45:58.951Z,5.90
2022-07-30T09:48:28.126Z,7.13
2022-07-30T09:50:57.405Z,4.50
2022-07-30T09:53:25.497Z,5.53
2022-07-30T09:55:53.066Z,6.53
2022-07-30T09:58:27.417Z,4.03
2022-07-30T10:00:59.491Z,4.37
2022-07-30T10:03:33.776Z,7.23
2022-07-30T10:06:02.904Z,6.63
2022-07-30T10:08:39.506Z,3.37
2022-07-30T10:11:08.661Z,4.43
2022-07-30T10:13:37.588Z,6.97
2022-07-30T10:16:05.973Z,3.77
2022-07-30T10:18:34.733Z,6.93
2022-07-30T10:21:05.362Z,4.70
2022-07-30T10:23:33.511Z,4.73
2022-07-30T10:26:03.669Z,3.87
2022-07-30T10:28:39.427Z,5.37
2022-07-30T10:31:47.134Z,9.03
2022-07-30T10:33:55.240Z,10.03
2022-07-30T10:36:24.455Z,7.63
2022-07-30T10:38:52.996Z,4.63
2022-07-30T10:41:43.210Z,3.80
2022-07-30T10:44:11.113Z,3.73
2022-07-30T10:46:43.151Z,4.30
2022-07-30T10:49:18.959Z,4.77
2022-07-30T10:51:53.739Z,3.93
2022-07-30T10:54:40.233Z,3.10
2022-07-30T10:57:22.870Z,5.03
2022-07-30T10:59:54.107Z,3.70
2022-07-30T11:02:31.321Z,5.07
2022-07-30T11:05:17.930Z,4.30
2022-07-30T11:07:47.239Z,2.43
2022-07-30T11:10:33.557Z,2.83
2022-07-30T11:13:01.128Z,4.13
2022-07-30T11:15:48.409Z,3.37
2022-07-30T11:18:17.814Z,2.93
2022-07-30T11:21:06.054Z,5.23
2022-07-30T11:23:39.228Z,3.30
2022-07-30T11:26:14.082Z,1.90
2022-07-30T11:28:46.061Z,3.67
2022-07-30T11:31:36.929Z,4.27
2022-07-30T11:34:32.329Z,2.60
2022-07-30T11:37:18.096Z,2.60
2022-07-30T11:39:55.760Z,2.73
2022-07-30T11:42:26.351Z,4.17
2022-07-30T11:44:54.090Z,3.10
2022-07-30T11:47:21.635Z,2.27
2022-07-30T11:49:49.089Z,3.20
2022-07-30T11:52:23.192Z,2.47
2022-07-30T11:54:56.525Z,3.17
2022-07-30T11:57:40.867Z,2.00
2022-07-30T12:00:08.754Z,5.73
2022-07-30T12:02:36.333Z,3.13
2022-07-30T12:05:03.626Z,1.30
2022-07-30T12:07:30.873Z,2.00
2022-07-30T12:10:27.159Z,2.77
2022-07-30T12:13:07.948Z,2.20
2022-07-30T12:15:38.475Z,3.03
2022-07-30T12:20:59.413Z,3.10
2022-07-30T12:23:27.616Z,1.53
2022-07-30T12:25:55.133Z,1.97
2022-07-30T12:28:23.984Z,1.50
2022-07-30T12:30:52.955Z,1.87
2022-07-30T12:33:20.918Z,1.40
2022-07-30T12:35:53.003Z,1.47
2022-07-30T12:38:21.565Z,2.77
2022-07-30T12:40:52.909Z,1.93
2022-07-30T12:43:40.363Z,2.60
2022-07-30T12:46:10.776Z,4.63
2022-07-30T12:48:57.779Z,2.27
2022-07-30T12:51:26.798Z,1.43
2022-07-30T12:53:54.744Z,2.67
2022-07-30T12:56:26.442Z,6.47
2022-07-30T12:58:55.033Z,2.90
2022-07-30T13:01:41.528Z,1.80
2022-07-30T13:04:09.446Z,1.37
2022-07-30T13:06:37.411Z,4.97
2022-07-30T13:09:05.998Z,2.03
2022-07-30T13:11:39.388Z,2.27
2022-07-30T13:14:06.983Z,3.53
2022-07-30T13:16:35.299Z,1.40
2022-07-30T13:19:06.213Z,3.07
2022-07-30T13:21:34.166Z,3.33
2022-07-30T13:24:01.894Z,1.30
2022-07-30T13:26:29.392Z,2.47
2022-07-30T13:29:01.496Z,3.33
2022-07-30T13:31:29.510Z,4.00
2022-07-30T13:34:11.521Z,1.53
2022-07-30T13:36:39.004Z,2.13
2022-07-30T13:39:06.478Z,2.13
2022-07-30T13:41:34.405Z,1.57
2022-07-30T13:44:01.943Z,1.20
2022-07-30T13:46:29.421Z,2.47
2022-07-30T13:48:57.013Z,2.03
2022-07-30T13:51:24.684Z,1.40
2022-07-30T13:53:52.278Z,1.70
2022-07-30T13:56:20.042Z,1.47
2022-07-30T13:58:47.854Z,1.27
2022-07-30T14:01:18.180Z,3.70
2022-07-30T14:03:50.736Z,1.73
2022-07-30T14:06:19.080Z,1.70
2022-07-30T14:08:46.632Z,3.67
2022-07-30T14:11:14.554Z,4.47
2022-07-30T14:13:42.319Z,4.63
2022-07-30T14:16:35.358Z,1.50
2022-07-30T14:18:57.555Z,2.13
2022-07-30T14:21:25.597Z,2.30
2022-07-30T14:23:53.114Z,1.67
2022-07-30T14:26:20.605Z,2.90
2022-07-30T14:28:48.099Z,1.30
2022-07-30T14:31:15.559Z,1.73
2022-07-30T14:33:43.023Z,3.33
2022-07-30T14:36:10.498Z,1.43
2022-07-30T14:38:38.180Z,1.50
2022-07-30T14:41:05.655Z,5.33
2022-07-30T14:43:33.155Z,2.47
2022-07-30T14:46:00.645Z,1.40
2022-07-30T14:48:28.135Z,2.17
2022-07-30T14:51:13.319Z,3.40
2022-07-30T14:53:43.132Z,2.00
2022-07-30T14:56:15.141Z,2.47
2022-07-30T14:58:45.303Z,1.73
2022-07-30T15:01:16.442Z,2.03
2022-07-30T15:03:45.575Z,5.50
2022-07-30T15:06:13.119Z,1.47
2022-07-30T15:08:40.638Z,2.50
2022-07-30T15:11:08.301Z,2.67
2022-07-30T15:13:41.099Z,3.67
2022-07-30T15:16:18.195Z,1.33
2022-07-30T15:18:45.714Z,1.60
2022-07-30T15:21:13.248Z,3.43
2022-07-30T15:23:40.795Z,1.73
2022-07-30T15:26:08.440Z,2.20
2022-07-30T15:28:35.997Z,1.40
2022-07-30T15:31:03.538Z,4.00
2022-07-30T15:33:31.077Z,2.73
2022-07-30T15:36:03.979Z,1.37
2022-07-30T15:38:31.432Z,1.87
2022-07-30T15:40:59.051Z,1.67
2022-07-30T15:43:26.540Z,2.90
2022-07-30T15:45:55.797Z,1.87
2022-07-30T15:48:27.613Z,2.87
2022-07-30T15:51:02.058Z,1.50
2022-07-30T15:53:30.066Z,3.23
2022-07-30T15:55:58.336Z,3.03
2022-07-30T15:58:25.891Z,5.63
2022-07-30T16:00:53.429Z,3.10
2022-07-30T16:03:21.116Z,2.40
2022-07-30T16:05:51.080Z,1.63
2022-07-30T16:08:23.482Z,1.30
2022-07-30T16:10:50.980Z,1.70
2022-07-30T16:13:18.865Z,2.37
2022-07-30T16:15:46.384Z,2.27
2022-07-30T16:18:13.884Z,3.50
2022-07-30T16:20:41.447Z,2.77
2022-07-30T16:23:13.332Z,2.77
2022-07-30T16:25:42.531Z,1.97
2022-07-30T16:28:10.005Z,2.03
2022-07-30T16:30:40.686Z,3.20
2022-07-30T16:33:19.620Z,3.30
2022-07-30T16:35:48.637Z,3.47
2022-07-30T16:38:16.981Z,1.17
2022-07-30T16:40:44.520Z,3.37
2022-07-30T16:43:12.177Z,4.30
2022-07-30T16:45:39.662Z,4.93
2022-07-30T16:48:07.264Z,1.90
2022-07-30T16:50:34.782Z,5.93
2022-07-30T16:53:02.377Z,7.23
2022-07-30T16:55:29.818Z,3.30
2022-07-30T16:57:57.294Z,3.80
2022-07-30T17:00:25.366Z,1.50
2022-07-30T17:02:52.876Z,2.07
2022-07-30T17:05:20.351Z,5.90
2022-07-30T17:07:47.836Z,1.70
2022-07-30T17:10:15.313Z,2.17
2022-07-30T17:12:51.737Z,2.47
2022-07-30T17:15:19.214Z,2.87
2022-07-30T17:17:46.717Z,2.60
2022-07-30T17:20:14.318Z,2.03
2022-07-30T17:22:43.148Z,2.23
2022-07-30T17:25:10.991Z,2.03
2022-07-30T17:27:38.632Z,1.20
2022-07-30T17:30:06.664Z,2.47
2022-07-30T17:32:34.179Z,2.77
2022-07-30T17:35:01.661Z,2.70
2022-07-30T17:37:29.158Z,1.37
2022-07-30T17:40:26.258Z,1.40
2022-07-30T17:42:44.102Z,2.80
2022-07-30T17:45:12.341Z,3.27
2022-07-30T17:47:39.849Z,1.40
2022-07-30T17:50:08.940Z,2.77
2022-07-30T17:52:36.455Z,3.43
2022-07-30T17:55:04.702Z,1.77
2022-07-30T17:57:32.295Z,1.50
2022-07-30T17:59:59.747Z,1.87
2022-07-30T18:02:29.338Z,1.97
2022-07-30T18:04:56.891Z,1.83
2022-07-30T18:07:24.412Z,4.63
2022-07-30T18:09:51.946Z,1.43
2022-07-30T18:12:19.483Z,3.20
2022-07-30T18:14:47.037Z,3.20
2022-07-30T18:17:14.693Z,2.37
2022-07-30T18:19:42.348Z,2.17
2022-07-30T18:22:09.828Z,2.87
2022-07-30T18:24:40.484Z,4.83
2022-07-30T18:27:11.564Z,2.20
2022-07-30T18:29:39.069Z,1.57
2022-07-30T18:32:07.099Z,2.03
2022-07-30T18:34:34.824Z,5.43
2022-07-30T18:37:02.017Z,5.60
2022-07-30T18:39:29.215Z,1.60
2022-07-30T18:41:56.411Z,3.70
2022-07-30T18:44:23.647Z,1.60
2022-07-30T18:46:50.861Z,3.53
2022-07-30T18:52:06.955Z,2.10
2022-07-30T18:54:34.907Z,2.77
2022-07-30T18:57:02.687Z,2.20
2022-07-30T18:59:30.221Z,2.37
2022-07-30T19:02:01.513Z,2.67
2022-07-30T19:04:29.216Z,2.47
2022-07-30T19:06:56.383Z,12.33
2022-07-30T19:09:23.982Z,1.80
2022-07-30T19:11:51.598Z,3.13
2022-07-30T19:14:19.295Z,2.77
2022-07-30T19:16:46.854Z,2.30
2022-07-30T19:19:14.887Z,3.13
2022-07-30T19:21:42.580Z,3.63
2022-07-30T19:24:10.296Z,4.17
2022-07-30T19:26:38.277Z,2.07
2022-07-30T19:29:06.688Z,2.90
2022-07-30T19:31:34.465Z,5.17
2022-07-30T19:34:01.925Z,2.93
2022-07-30T19:36:29.217Z,8.43
2022-07-30T19:38:57.179Z,9.63
2022-07-30T19:41:25.050Z,8.13
2022-07-30T19:43:57.836Z,7.43
2022-07-30T19:46:41.270Z,10.10
2022-07-30T19:49:10.128Z,3.70
2022-07-30T19:52:10.461Z,5.40
2022-07-30T19:54:25.521Z,3.43
2022-07-30T19:56:53.115Z,3.50
2022-07-30T19:59:43.164Z,2.37
2022-07-30T20:02:08.443Z,3.47
2022-07-30T20:04:37.255Z,2.27
2022-07-30T20:07:04.630Z,2.40
2022-07-30T20:09:31.876Z,3.57
2022-07-30T20:12:02.281Z,3.47
2022-07-30T20:14:29.961Z,4.13
2022-07-30T20:17:01.965Z,2.93
2022-07-30T20:19:36.155Z,2.40
2022-07-30T20:22:04.007Z,2.30
2022-07-30T20:24:31.441Z,3.20
2022-07-30T20:26:59.541Z,4.03
2022-07-30T20:29:27.079Z,4.17
2022-07-30T20:31:54.307Z,2.40
2022-07-30T20:34:23.503Z,2.73
2022-07-30T20:36:51.936Z,2.53
2022-07-30T20:39:21.084Z,4.67
2022-07-30T20:41:48.302Z,1.40
2022-07-30T20:44:23.342Z,7.90
2022-07-30T20:46:52.685Z,4.20
2022-07-30T20:49:23.801Z,2.80
2022-07-30T20:52:01.827Z,3.07
2022-07-30T20:54:30.725Z,4.47
2022-07-30T20:56:59.438Z,2.47
2022-07-30T20:59:27.786Z,2.83
2022-07-30T21:01:55.988Z,3.10
2022-07-30T21:04:25.725Z,3.13
2022-07-30T21:06:53.353Z,3.10
2022-07-30T21:09:20.702Z,3.47
2022-07-30T21:11:50.706Z,2.10
2022-07-30T21:14:18.681Z,3.13
2022-07-30T21:16:47.449Z,3.23
2022-07-30T21:19:15.400Z,2.93
2022-07-30T21:21:47.984Z,4.23
2022-07-30T21:24:16.766Z,4.13
2022-07-30T21:26:45.835Z,2.70
2022-07-30T21:29:13.118Z,3.57
2022-07-30T21:32:01.776Z,5.80
2022-07-30T21:34:35.511Z,2.83
2022-07-30T21:37:07.571Z,4.73
2022-07-30T21:39:39.881Z,2.90
2022-07-30T21:42:08.826Z,3.03
2022-07-30T21:44:37.576Z,4.83
2022-07-30T21:47:10.283Z,3.47
2022-07-30T21:49:38.805Z,2.07
2022-07-30T21:52:07.757Z,7.20
2022-07-30T21:54:48.029Z,3.20
2022-07-30T21:57:26.310Z,2.77
2022-07-30T21:59:55.178Z,2.73
2022-07-30T22:02:24.128Z,2.73
2022-07-30T22:04:52.195Z,3.13
2022-07-30T22:07:21.914Z,3.13
2022-07-30T22:09:49.410Z,2.20
2022-07-30T22:12:18.100Z,4.50
2022-07-30T22:14:46.908Z,2.97
2022-07-30T22:17:23.897Z,4.03
2022-07-30T22:20:08.860Z,4.17
2022-07-30T22:22:39.341Z,3.30
2022-07-30T22:25:09.522Z,2.80
2022-07-30T22:27:39.620Z,3.73
2022-07-30T22:30:09.715Z,9.93
2022-07-30T22:32:37.710Z,2.50
2022-07-30T22:35:07.101Z,2.30
2022-07-30T22:37:34.416Z,3.03
2022-07-30T22:40:01.973Z,3.67
2022-07-30T22:42:29.250Z,2.73
2022-07-30T22:44:57.674Z,2.50
2022-07-30T22:47:51.461Z,3.50
2022-07-30T22:50:14.688Z,3.23
2022-07-30T22:52:59.819Z,4.97
2022-07-30T22:55:32.005Z,3.73
2022-07-30T22:57:59.341Z,3.30
2022-07-30T23:00:27.693Z,3.50
2022-07-30T23:02:56.731Z,2.97
2022-07-30T23:05:24.802Z,4.73
2022-07-30T23:07:52.184Z,4.40
2022-07-30T23:10:20.768Z,2.87
2022-07-30T23:12:50.160Z,3.03
2022-07-30T23:15:18.159Z,6.83
2022-07-30T23:17:45.439Z,3.23
2022-07-30T23:20:15.705Z,5.67
2022-07-30T23:22:43.067Z,3.20
2022-07-30T23:25:11.172Z,4.60
2022-07-30T23:27:39.077Z,3.37
2022-07-30T23:30:11.318Z,2.30
2022-07-30T23:32:38.973Z,4.33
2022-07-30T23:35:07.644Z,1.70
2022-07-30T23:37:47.596Z,2.60
2022-07-30T23:40:17.077Z,7.17
2022-07-30T23:42:44.321Z,5.67
2022-07-30T23:45:11.632Z,2.53
2022-07-30T23:47:55.961Z,2.57
2022-07-30T23:50:26.638Z,3.17
2022-07-30T23:52:53.754Z,3.77
2022-07-30T23:55:21.255Z,2.67
2022-07-30T23:57:48.802Z,2.97
